sensor_id;sensor_type;location;lat;lon;timestamp;P1;durP1;ratioP1;P2;durP2;ratioP2
46551;SDS011;32278;51.810;4.712;2022-10-13T00:00:29;18.00;;;8.88;;
46551;SDS011;32278;51.810;4.712;2022-10-13T00:02:58;19.23;;;8.70;;
46551;SDS011;32278;51.810;4.712;2022-10-13T00:05:25;15.95;;;8.38;;
46551;SDS011;32278;51.810;4.712;2022-10-13T00:07:51;15.10;;;8.73;;
46551;SDS011;32278;51.810;4.712;2022-10-13T00:10:17;17.65;;;8.27;;
46551;SDS011;32278;51.810;4.712;2022-10-13T00:12:43;21.55;;;9.85;;
46551;SDS011;32278;51.810;4.712;2022-10-13T00:15:08;26.48;;;9.80;;
46551;SDS011;32278;51.810;4.712;2022-10-13T00:17:34;16.77;;;8.45;;
46551;SDS011;32278;51.810;4.712;2022-10-13T00:20:01;21.48;;;9.23;;
46551;SDS011;32278;51.810;4.712;2022-10-13T00:22:27;19.10;;;8.93;;
46551;SDS011;32278;51.810;4.712;2022-10-13T00:24:53;18.08;;;8.68;;
46551;SDS011;32278;51.810;4.712;2022-10-13T00:27:18;21.08;;;8.65;;
46551;SDS011;32278;51.810;4.712;2022-10-13T00:29:44;17.77;;;7.25;;
46551;SDS011;32278;51.810;4.712;2022-10-13T00:32:10;15.65;;;8.30;;
46551;SDS011;32278;51.810;4.712;2022-10-13T00:34:36;19.38;;;8.40;;
46551;SDS011;32278;51.810;4.712;2022-10-13T00:37:02;17.27;;;8.48;;
46551;SDS011;32278;51.810;4.712;2022-10-13T00:39:28;14.65;;;7.50;;
46551;SDS011;32278;51.810;4.712;2022-10-13T00:41:55;19.85;;;8.82;;
46551;SDS011;32278;51.810;4.712;2022-10-13T00:47:21;23.58;;;8.57;;
46551;SDS011;32278;51.810;4.712;2022-10-13T00:49:49;15.00;;;7.43;;
46551;SDS011;32278;51.810;4.712;2022-10-13T00:52:16;15.73;;;7.65;;
46551;SDS011;32278;51.810;4.712;2022-10-13T00:54:43;18.05;;;7.10;;
46551;SDS011;32278;51.810;4.712;2022-10-13T00:57:09;16.48;;;7.45;;
46551;SDS011;32278;51.810;4.712;2022-10-13T00:59:35;16.30;;;8.35;;
46551;SDS011;32278;51.810;4.712;2022-10-13T01:02:02;14.88;;;8.30;;
46551;SDS011;32278;51.810;4.712;2022-10-13T01:04:30;22.05;;;8.07;;
46551;SDS011;32278;51.810;4.712;2022-10-13T01:07:01;16.85;;;7.68;;
46551;SDS011;32278;51.810;4.712;2022-10-13T01:09:28;17.30;;;7.72;;
46551;SDS011;32278;51.810;4.712;2022-10-13T01:15:01;15.35;;;7.75;;
46551;SDS011;32278;51.810;4.712;2022-10-13T01:20:08;18.92;;;6.82;;
46551;SDS011;32278;51.810;4.712;2022-10-13T01:31:11;18.60;;;7.93;;
46551;SDS011;32278;51.810;4.712;2022-10-13T01:33:48;23.35;;;7.95;;
46551;SDS011;32278;51.810;4.712;2022-10-13T01:42:13;16.88;;;7.20;;
46551;SDS011;32278;51.810;4.712;2022-10-13T01:44:53;15.85;;;7.45;;
46551;SDS011;32278;51.810;4.712;2022-10-13T01:47:24;18.60;;;8.27;;
46551;SDS011;32278;51.810;4.712;2022-10-13T01:49:51;21.65;;;7.60;;
46551;SDS011;32278;51.810;4.712;2022-10-13T01:52:18;14.88;;;6.78;;
46551;SDS011;32278;51.810;4.712;2022-10-13T01:54:47;11.80;;;6.13;;
46551;SDS011;32278;51.810;4.712;2022-10-13T02:00:05;21.85;;;7.40;;
46551;SDS011;32278;51.810;4.712;2022-10-13T02:02:36;14.30;;;7.30;;
46551;SDS011;32278;51.810;4.712;2022-10-13T02:13:40;17.33;;;6.93;;
46551;SDS011;32278;51.810;4.712;2022-10-13T02:16:10;11.80;;;6.53;;
46551;SDS011;32278;51.810;4.712;2022-10-13T02:18:38;13.27;;;6.82;;
46551;SDS011;32278;51.810;4.712;2022-10-13T02:21:04;15.43;;;6.30;;
46551;SDS011;32278;51.810;4.712;2022-10-13T02:23:30;10.68;;;5.72;;
46551;SDS011;32278;51.810;4.712;2022-10-13T02:25:56;13.27;;;6.72;;
46551;SDS011;32278;51.810;4.712;2022-10-13T02:28:23;12.27;;;5.90;;
46551;SDS011;32278;51.810;4.712;2022-10-13T02:30:49;16.80;;;7.40;;
46551;SDS011;32278;51.810;4.712;2022-10-13T02:33:15;15.63;;;6.03;;
46551;SDS011;32278;51.810;4.712;2022-10-13T02:35:41;16.73;;;6.38;;
46551;SDS011;32278;51.810;4.712;2022-10-13T02:38:07;11.32;;;6.35;;
46551;SDS011;32278;51.810;4.712;2022-10-13T02:40:34;16.90;;;6.60;;
46551;SDS011;32278;51.810;4.712;2022-10-13T02:43:00;15.23;;;7.07;;
46551;SDS011;32278;51.810;4.712;2022-10-13T02:45:26;19.20;;;7.97;;
46551;SDS011;32278;51.810;4.712;2022-10-13T02:47:51;17.05;;;6.70;;
46551;SDS011;32278;51.810;4.712;2022-10-13T02:50:17;15.80;;;7.05;;
46551;SDS011;32278;51.810;4.712;2022-10-13T02:52:42;11.93;;;6.40;;
46551;SDS011;32278;51.810;4.712;2022-10-13T02:55:08;13.43;;;6.93;;
46551;SDS011;32278;51.810;4.712;2022-10-13T02:57:34;18.50;;;7.70;;
46551;SDS011;32278;51.810;4.712;2022-10-13T02:59:59;17.42;;;6.97;;
46551;SDS011;32278;51.810;4.712;2022-10-13T03:02:25;17.73;;;7.22;;
46551;SDS011;32278;51.810;4.712;2022-10-13T03:04:52;12.82;;;7.05;;
46551;SDS011;32278;51.810;4.712;2022-10-13T03:07:17;17.55;;;7.15;;
46551;SDS011;32278;51.810;4.712;2022-10-13T03:09:43;18.60;;;7.35;;
46551;SDS011;32278;51.810;4.712;2022-10-13T03:12:08;17.35;;;7.28;;
46551;SDS011;32278;51.810;4.712;2022-10-13T03:14:34;23.63;;;7.93;;
46551;SDS011;32278;51.810;4.712;2022-10-13T03:17:00;17.83;;;7.30;;
46551;SDS011;32278;51.810;4.712;2022-10-13T03:19:25;12.95;;;6.53;;
46551;SDS011;32278;51.810;4.712;2022-10-13T03:21:51;21.75;;;7.32;;
46551;SDS011;32278;51.810;4.712;2022-10-13T03:24:17;17.15;;;7.65;;
46551;SDS011;32278;51.810;4.712;2022-10-13T03:26:42;12.15;;;7.30;;
46551;SDS011;32278;51.810;4.712;2022-10-13T03:29:11;15.00;;;7.13;;
46551;SDS011;32278;51.810;4.712;2022-10-13T03:31:41;16.90;;;7.47;;
46551;SDS011;32278;51.810;4.712;2022-10-13T03:34:07;12.77;;;7.45;;
46551;SDS011;32278;51.810;4.712;2022-10-13T03:36:34;18.48;;;7.82;;
46551;SDS011;32278;51.810;4.712;2022-10-13T03:39:00;19.40;;;7.78;;
46551;SDS011;32278;51.810;4.712;2022-10-13T03:41:25;20.90;;;7.60;;
46551;SDS011;32278;51.810;4.712;2022-10-13T03:43:51;19.27;;;7.60;;
46551;SDS011;32278;51.810;4.712;2022-10-13T03:46:17;17.33;;;7.38;;
46551;SDS011;32278;51.810;4.712;2022-10-13T03:48:43;20.23;;;8.35;;
46551;SDS011;32278;51.810;4.712;2022-10-13T03:51:10;14.93;;;7.28;;
46551;SDS011;32278;51.810;4.712;2022-10-13T03:53:38;19.80;;;8.05;;
46551;SDS011;32278;51.810;4.712;2022-10-13T03:56:03;17.55;;;6.40;;
46551;SDS011;32278;51.810;4.712;2022-10-13T03:58:30;17.70;;;7.53;;
46551;SDS011;32278;51.810;4.712;2022-10-13T04:00:56;12.23;;;7.43;;
46551;SDS011;32278;51.810;4.712;2022-10-13T04:03:25;13.32;;;7.90;;
46551;SDS011;32278;51.810;4.712;2022-10-13T04:05:51;16.13;;;7.30;;
46551;SDS011;32278;51.810;4.712;2022-10-13T04:08:17;14.43;;;7.05;;
46551;SDS011;32278;51.810;4.712;2022-10-13T04:10:42;17.88;;;7.53;;
46551;SDS011;32278;51.810;4.712;2022-10-13T04:13:08;13.68;;;7.75;;
46551;SDS011;32278;51.810;4.712;2022-10-13T04:15:40;14.40;;;7.38;;
46551;SDS011;32278;51.810;4.712;2022-10-13T04:18:06;20.25;;;7.50;;
46551;SDS011;32278;51.810;4.712;2022-10-13T04:20:38;22.80;;;8.38;;
46551;SDS011;32278;51.810;4.712;2022-10-13T04:23:04;20.50;;;8.53;;
46551;SDS011;32278;51.810;4.712;2022-10-13T04:25:30;19.23;;;8.07;;
46551;SDS011;32278;51.810;4.712;2022-10-13T04:27:57;22.02;;;8.60;;
46551;SDS011;32278;51.810;4.712;2022-10-13T04:30:23;22.77;;;9.43;;
46551;SDS011;32278;51.810;4.712;2022-10-13T04:32:48;20.60;;;8.07;;
46551;SDS011;32278;51.810;4.712;2022-10-13T04:35:14;13.60;;;7.68;;
46551;SDS011;32278;51.810;4.712;2022-10-13T04:37:40;16.60;;;7.90;;
46551;SDS011;32278;51.810;4.712;2022-10-13T04:40:05;22.33;;;8.27;;
46551;SDS011;32278;51.810;4.712;2022-10-13T04:42:31;16.80;;;7.85;;
46551;SDS011;32278;51.810;4.712;2022-10-13T04:44:57;20.35;;;7.97;;
46551;SDS011;32278;51.810;4.712;2022-10-13T04:47:23;28.60;;;8.13;;
46551;SDS011;32278;51.810;4.712;2022-10-13T04:49:48;19.27;;;8.02;;
46551;SDS011;32278;51.810;4.712;2022-10-13T04:52:14;20.10;;;7.80;;
46551;SDS011;32278;51.810;4.712;2022-10-13T04:54:39;18.00;;;7.70;;
46551;SDS011;32278;51.810;4.712;2022-10-13T04:57:06;21.73;;;8.38;;
46551;SDS011;32278;51.810;4.712;2022-10-13T04:59:31;18.10;;;8.65;;
46551;SDS011;32278;51.810;4.712;2022-10-13T05:01:57;17.02;;;7.85;;
46551;SDS011;32278;51.810;4.712;2022-10-13T05:04:22;18.60;;;7.70;;
46551;SDS011;32278;51.810;4.712;2022-10-13T05:06:48;25.75;;;8.82;;
46551;SDS011;32278;51.810;4.712;2022-10-13T05:09:14;17.50;;;8.00;;
46551;SDS011;32278;51.810;4.712;2022-10-13T05:11:40;13.65;;;7.30;;
46551;SDS011;32278;51.810;4.712;2022-10-13T05:14:05;23.42;;;8.80;;
46551;SDS011;32278;51.810;4.712;2022-10-13T05:16:31;19.52;;;8.77;;
46551;SDS011;32278;51.810;4.712;2022-10-13T05:18:57;29.23;;;9.57;;
46551;SDS011;32278;51.810;4.712;2022-10-13T05:21:23;20.00;;;9.10;;
46551;SDS011;32278;51.810;4.712;2022-10-13T05:23:52;15.48;;;7.82;;
46551;SDS011;32278;51.810;4.712;2022-10-13T05:26:20;17.70;;;8.13;;
46551;SDS011;32278;51.810;4.712;2022-10-13T05:28:47;35.00;;;9.38;;
46551;SDS011;32278;51.810;4.712;2022-10-13T05:31:17;19.63;;;9.32;;
46551;SDS011;32278;51.810;4.712;2022-10-13T05:33:45;22.95;;;9.23;;
46551;SDS011;32278;51.810;4.712;2022-10-13T05:36:13;25.38;;;9.63;;
46551;SDS011;32278;51.810;4.712;2022-10-13T05:38:39;19.30;;;9.35;;
46551;SDS011;32278;51.810;4.712;2022-10-13T05:41:05;23.02;;;9.93;;
46551;SDS011;32278;51.810;4.712;2022-10-13T05:43:33;22.55;;;9.73;;
46551;SDS011;32278;51.810;4.712;2022-10-13T05:45:59;24.80;;;9.75;;
46551;SDS011;32278;51.810;4.712;2022-10-13T05:48:25;29.35;;;10.63;;
46551;SDS011;32278;51.810;4.712;2022-10-13T05:50:51;22.13;;;9.85;;
46551;SDS011;32278;51.810;4.712;2022-10-13T05:53:18;21.80;;;9.48;;
46551;SDS011;32278;51.810;4.712;2022-10-13T05:55:46;26.20;;;10.15;;
46551;SDS011;32278;51.810;4.712;2022-10-13T05:58:11;23.33;;;10.45;;
46551;SDS011;32278;51.810;4.712;2022-10-13T06:00:37;27.65;;;11.13;;
46551;SDS011;32278;51.810;4.712;2022-10-13T06:03:06;25.60;;;11.18;;
46551;SDS011;32278;51.810;4.712;2022-10-13T06:08:04;20.10;;;10.32;;
46551;SDS011;32278;51.810;4.712;2022-10-13T06:10:30;25.33;;;10.93;;
46551;SDS011;32278;51.810;4.712;2022-10-13T06:12:56;24.42;;;11.05;;
46551;SDS011;32278;51.810;4.712;2022-10-13T06:15:21;25.65;;;12.30;;
46551;SDS011;32278;51.810;4.712;2022-10-13T06:17:47;29.10;;;13.85;;
46551;SDS011;32278;51.810;4.712;2022-10-13T06:20:12;31.40;;;13.65;;
46551;SDS011;32278;51.810;4.712;2022-10-13T06:22:38;30.55;;;12.10;;
46551;SDS011;32278;51.810;4.712;2022-10-13T06:25:04;23.88;;;11.73;;
46551;SDS011;32278;51.810;4.712;2022-10-13T06:27:30;25.77;;;12.70;;
46551;SDS011;32278;51.810;4.712;2022-10-13T06:29:56;31.20;;;14.45;;
46551;SDS011;32278;51.810;4.712;2022-10-13T06:32:22;31.67;;;12.30;;
46551;SDS011;32278;51.810;4.712;2022-10-13T06:34:48;27.88;;;13.02;;
46551;SDS011;32278;51.810;4.712;2022-10-13T06:37:13;31.98;;;12.65;;
46551;SDS011;32278;51.810;4.712;2022-10-13T06:39:39;26.30;;;13.43;;
46551;SDS011;32278;51.810;4.712;2022-10-13T06:42:04;29.02;;;12.15;;
46551;SDS011;32278;51.810;4.712;2022-10-13T06:44:30;24.20;;;12.75;;
46551;SDS011;32278;51.810;4.712;2022-10-13T06:46:56;21.85;;;12.15;;
46551;SDS011;32278;51.810;4.712;2022-10-13T06:49:22;28.05;;;12.25;;
46551;SDS011;32278;51.810;4.712;2022-10-13T06:51:48;32.08;;;12.63;;
46551;SDS011;32278;51.810;4.712;2022-10-13T06:54:14;28.30;;;12.10;;
46551;SDS011;32278;51.810;4.712;2022-10-13T06:56:40;22.40;;;11.55;;
46551;SDS011;32278;51.810;4.712;2022-10-13T06:59:05;26.73;;;12.57;;
46551;SDS011;32278;51.810;4.712;2022-10-13T07:01:31;24.60;;;12.93;;
46551;SDS011;32278;51.810;4.712;2022-10-13T07:03:57;21.83;;;11.77;;
46551;SDS011;32278;51.810;4.712;2022-10-13T07:06:23;23.92;;;13.35;;
46551;SDS011;32278;51.810;4.712;2022-10-13T07:08:48;23.95;;;12.07;;
46551;SDS011;32278;51.810;4.712;2022-10-13T07:11:14;30.13;;;13.32;;
46551;SDS011;32278;51.810;4.712;2022-10-13T07:13:40;27.02;;;11.77;;
46551;SDS011;32278;51.810;4.712;2022-10-13T07:16:06;21.95;;;11.65;;
46551;SDS011;32278;51.810;4.712;2022-10-13T07:18:33;24.25;;;12.13;;
46551;SDS011;32278;51.810;4.712;2022-10-13T07:20:59;24.60;;;11.23;;
46551;SDS011;32278;51.810;4.712;2022-10-13T07:23:25;20.77;;;10.52;;
46551;SDS011;32278;51.810;4.712;2022-10-13T07:25:51;25.95;;;11.63;;
46551;SDS011;32278;51.810;4.712;2022-10-13T07:28:17;24.27;;;11.48;;
46551;SDS011;32278;51.810;4.712;2022-10-13T07:30:43;19.48;;;10.27;;
46551;SDS011;32278;51.810;4.712;2022-10-13T07:33:09;24.08;;;10.90;;
46551;SDS011;32278;51.810;4.712;2022-10-13T07:35:37;20.50;;;9.85;;
46551;SDS011;32278;51.810;4.712;2022-10-13T07:38:03;23.23;;;9.93;;
46551;SDS011;32278;51.810;4.712;2022-10-13T07:40:28;23.88;;;9.85;;
46551;SDS011;32278;51.810;4.712;2022-10-13T07:42:57;27.98;;;9.73;;
46551;SDS011;32278;51.810;4.712;2022-10-13T07:45:23;15.68;;;8.95;;
46551;SDS011;32278;51.810;4.712;2022-10-13T07:47:48;19.55;;;10.13;;
46551;SDS011;32278;51.810;4.712;2022-10-13T07:50:14;14.48;;;8.43;;
46551;SDS011;32278;51.810;4.712;2022-10-13T07:52:40;18.33;;;9.40;;
46551;SDS011;32278;51.810;4.712;2022-10-13T07:55:05;21.65;;;9.88;;
46551;SDS011;32278;51.810;4.712;2022-10-13T07:57:32;20.83;;;10.48;;
46551;SDS011;32278;51.810;4.712;2022-10-13T07:59:57;21.70;;;10.57;;
46551;SDS011;32278;51.810;4.712;2022-10-13T08:02:23;20.98;;;10.60;;
46551;SDS011;32278;51.810;4.712;2022-10-13T08:04:48;18.73;;;10.15;;
46551;SDS011;32278;51.810;4.712;2022-10-13T08:07:14;25.73;;;11.75;;
46551;SDS011;32278;51.810;4.712;2022-10-13T08:09:40;27.08;;;11.07;;
46551;SDS011;32278;51.810;4.712;2022-10-13T08:12:06;21.33;;;10.43;;
46551;SDS011;32278;51.810;4.712;2022-10-13T08:14:32;32.17;;;10.52;;
46551;SDS011;32278;51.810;4.712;2022-10-13T08:16:57;26.88;;;10.07;;
46551;SDS011;32278;51.810;4.712;2022-10-13T08:19:23;15.85;;;10.18;;
46551;SDS011;32278;51.810;4.712;2022-10-13T08:21:50;21.20;;;10.43;;
46551;SDS011;32278;51.810;4.712;2022-10-13T08:24:17;20.83;;;10.10;;
46551;SDS011;32278;51.810;4.712;2022-10-13T08:26:43;17.25;;;9.23;;
46551;SDS011;32278;51.810;4.712;2022-10-13T08:29:10;22.60;;;9.73;;
46551;SDS011;32278;51.810;4.712;2022-10-13T08:31:36;18.83;;;8.95;;
46551;SDS011;32278;51.810;4.712;2022-10-13T08:34:02;22.35;;;9.18;;
46551;SDS011;32278;51.810;4.712;2022-10-13T08:36:27;22.70;;;9.50;;
46551;SDS011;32278;51.810;4.712;2022-10-13T08:38:53;15.02;;;8.05;;
46551;SDS011;32278;51.810;4.712;2022-10-13T08:41:20;22.63;;;9.20;;
46551;SDS011;32278;51.810;4.712;2022-10-13T08:43:50;18.20;;;8.50;;
46551;SDS011;32278;51.810;4.712;2022-10-13T08:46:31;23.95;;;9.23;;
46551;SDS011;32278;51.810;4.712;2022-10-13T08:49:03;14.30;;;8.40;;
46551;SDS011;32278;51.810;4.712;2022-10-13T08:51:30;16.90;;;8.00;;
46551;SDS011;32278;51.810;4.712;2022-10-13T08:53:56;15.93;;;7.80;;
46551;SDS011;32278;51.810;4.712;2022-10-13T08:56:29;17.45;;;9.18;;
46551;SDS011;32278;51.810;4.712;2022-10-13T08:58:58;19.20;;;8.02;;
46551;SDS011;32278;51.810;4.712;2022-10-13T09:01:32;20.85;;;9.25;;
46551;SDS011;32278;51.810;4.712;2022-10-13T09:04:15;22.00;;;8.55;;
46551;SDS011;32278;51.810;4.712;2022-10-13T09:10:03;19.02;;;8.93;;
46551;SDS011;32278;51.810;4.712;2022-10-13T09:12:31;16.20;;;8.10;;
46551;SDS011;32278;51.810;4.712;2022-10-13T09:15:01;19.60;;;9.00;;
46551;SDS011;32278;51.810;4.712;2022-10-13T09:17:33;25.10;;;9.43;;
46551;SDS011;32278;51.810;4.712;2022-10-13T09:20:01;19.60;;;10.27;;
46551;SDS011;32278;51.810;4.712;2022-10-13T09:22:42;28.13;;;10.73;;
46551;SDS011;32278;51.810;4.712;2022-10-13T09:25:16;15.80;;;8.50;;
46551;SDS011;32278;51.810;4.712;2022-10-13T09:27:53;18.67;;;8.95;;
46551;SDS011;32278;51.810;4.712;2022-10-13T09:30:34;18.50;;;9.05;;
46551;SDS011;32278;51.810;4.712;2022-10-13T09:35:36;23.77;;;9.48;;
46551;SDS011;32278;51.810;4.712;2022-10-13T09:40:27;25.00;;;9.02;;
46551;SDS011;32278;51.810;4.712;2022-10-13T09:42:56;18.77;;;9.80;;
46551;SDS011;32278;51.810;4.712;2022-10-13T09:45:24;27.92;;;10.15;;
46551;SDS011;32278;51.810;4.712;2022-10-13T09:47:54;14.80;;;8.23;;
46551;SDS011;32278;51.810;4.712;2022-10-13T09:50:31;21.70;;;10.07;;
46551;SDS011;32278;51.810;4.712;2022-10-13T09:53:09;19.70;;;9.20;;
46551;SDS011;32278;51.810;4.712;2022-10-13T09:55:54;19.63;;;9.38;;
46551;SDS011;32278;51.810;4.712;2022-10-13T09:58:54;28.48;;;10.65;;
46551;SDS011;32278;51.810;4.712;2022-10-13T10:01:29;30.27;;;10.13;;
46551;SDS011;32278;51.810;4.712;2022-10-13T10:04:01;23.50;;;9.18;;
46551;SDS011;32278;51.810;4.712;2022-10-13T10:06:30;17.92;;;9.15;;
46551;SDS011;32278;51.810;4.712;2022-10-13T10:08:56;23.83;;;10.60;;
46551;SDS011;32278;51.810;4.712;2022-10-13T10:11:47;20.90;;;9.57;;
46551;SDS011;32278;51.810;4.712;2022-10-13T10:14:19;22.75;;;10.70;;
46551;SDS011;32278;51.810;4.712;2022-10-13T10:20:02;27.55;;;10.57;;
46551;SDS011;32278;51.810;4.712;2022-10-13T10:23:03;18.73;;;9.25;;
46551;SDS011;32278;51.810;4.712;2022-10-13T10:33:47;22.40;;;9.90;;
46551;SDS011;32278;51.810;4.712;2022-10-13T10:36:16;26.15;;;10.48;;
46551;SDS011;32278;51.810;4.712;2022-10-13T10:38:51;21.45;;;10.77;;
46551;SDS011;32278;51.810;4.712;2022-10-13T10:44:12;21.48;;;10.20;;
46551;SDS011;32278;51.810;4.712;2022-10-13T10:46:49;17.48;;;9.50;;
46551;SDS011;32278;51.810;4.712;2022-10-13T10:49:26;22.92;;;10.20;;
46551;SDS011;32278;51.810;4.712;2022-10-13T10:51:57;27.13;;;11.13;;
46551;SDS011;32278;51.810;4.712;2022-10-13T10:57:05;20.88;;;9.77;;
46551;SDS011;32278;51.810;4.712;2022-10-13T10:59:42;24.92;;;10.63;;
46551;SDS011;32278;51.810;4.712;2022-10-13T11:02:25;23.40;;;10.90;;
46551;SDS011;32278;51.810;4.712;2022-10-13T11:04:54;24.45;;;11.52;;
46551;SDS011;32278;51.810;4.712;2022-10-13T11:17:37;25.75;;;10.57;;
46551;SDS011;32278;51.810;4.712;2022-10-13T11:28:11;18.40;;;10.25;;
46551;SDS011;32278;51.810;4.712;2022-10-13T11:33:34;19.58;;;10.15;;
46551;SDS011;32278;51.810;4.712;2022-10-13T11:38:59;17.08;;;8.73;;
46551;SDS011;32278;51.810;4.712;2022-10-13T11:44:49;18.08;;;8.90;;
46551;SDS011;32278;51.810;4.712;2022-10-13T11:55:16;17.40;;;8.43;;
46551;SDS011;32278;51.810;4.712;2022-10-13T11:58:07;28.13;;;9.15;;
46551;SDS011;32278;51.810;4.712;2022-10-13T12:03:31;16.33;;;8.10;;
46551;SDS011;32278;51.810;4.712;2022-10-13T12:06:44;22.77;;;9.13;;
46551;SDS011;32278;51.810;4.712;2022-10-13T12:09:17;19.77;;;9.15;;
46551;SDS011;32278;51.810;4.712;2022-10-13T12:11:44;22.48;;;9.25;;
46551;SDS011;32278;51.810;4.712;2022-10-13T12:14:20;19.65;;;10.00;;
46551;SDS011;32278;51.810;4.712;2022-10-13T12:16:53;19.02;;;9.48;;
46551;SDS011;32278;51.810;4.712;2022-10-13T12:19:24;22.00;;;9.70;;
46551;SDS011;32278;51.810;4.712;2022-10-13T12:21:56;23.90;;;11.13;;
46551;SDS011;32278;51.810;4.712;2022-10-13T12:24:24;17.85;;;9.93;;
46551;SDS011;32278;51.810;4.712;2022-10-13T12:26:51;16.60;;;8.98;;
46551;SDS011;32278;51.810;4.712;2022-10-13T12:29:18;26.30;;;10.65;;
46551;SDS011;32278;51.810;4.712;2022-10-13T12:31:49;20.95;;;9.63;;
46551;SDS011;32278;51.810;4.712;2022-10-13T12:34:29;16.90;;;9.68;;
46551;SDS011;32278;51.810;4.712;2022-10-13T12:37:01;19.42;;;10.68;;
46551;SDS011;32278;51.810;4.712;2022-10-13T12:41:56;24.90;;;10.52;;
46551;SDS011;32278;51.810;4.712;2022-10-13T12:44:25;23.90;;;11.57;;
46551;SDS011;32278;51.810;4.712;2022-10-13T12:46:56;23.98;;;10.43;;
46551;SDS011;32278;51.810;4.712;2022-10-13T12:49:24;19.98;;;10.20;;
46551;SDS011;32278;51.810;4.712;2022-10-13T12:52:11;26.90;;;10.82;;
46551;SDS011;32278;51.810;4.712;2022-10-13T12:54:39;20.67;;;11.18;;
46551;SDS011;32278;51.810;4.712;2022-10-13T12:57:16;21.20;;;11.50;;
46551;SDS011;32278;51.810;4.712;2022-10-13T12:59:45;17.35;;;10.57;;
46551;SDS011;32278;51.810;4.712;2022-10-13T13:02:18;27.58;;;10.75;;
46551;SDS011;32278;51.810;4.712;2022-10-13T13:04:55;21.70;;;10.57;;
46551;SDS011;32278;51.810;4.712;2022-10-13T13:07:24;24.25;;;10.63;;
46551;SDS011;32278;51.810;4.712;2022-10-13T13:10:12;19.80;;;9.38;;
46551;SDS011;32278;51.810;4.712;2022-10-13T13:12:41;22.13;;;10.57;;
46551;SDS011;32278;51.810;4.712;2022-10-13T13:17:48;16.55;;;9.60;;
46551;SDS011;32278;51.810;4.712;2022-10-13T13:20:48;29.38;;;10.70;;
46551;SDS011;32278;51.810;4.712;2022-10-13T13:23:07;18.13;;;10.45;;
46551;SDS011;32278;51.810;4.712;2022-10-13T13:25:32;19.08;;;9.40;;
46551;SDS011;32278;51.810;4.712;2022-10-13T13:27:58;18.23;;;9.38;;
46551;SDS011;32278;51.810;4.712;2022-10-13T13:30:27;17.52;;;10.18;;
46551;SDS011;32278;51.810;4.712;2022-10-13T13:32:52;21.67;;;10.07;;
46551;SDS011;32278;51.810;4.712;2022-10-13T13:35:18;19.15;;;9.43;;
46551;SDS011;32278;51.810;4.712;2022-10-13T13:37:44;19.45;;;9.68;;
46551;SDS011;32278;51.810;4.712;2022-10-13T13:40:14;22.90;;;10.43;;
46551;SDS011;32278;51.810;4.712;2022-10-13T13:42:42;21.67;;;9.40;;
46551;SDS011;32278;51.810;4.712;2022-10-13T13:45:10;21.42;;;9.98;;
46551;SDS011;32278;51.810;4.712;2022-10-13T13:47:40;20.80;;;9.52;;
46551;SDS011;32278;51.810;4.712;2022-10-13T13:50:16;20.10;;;9.73;;
46551;SDS011;32278;51.810;4.712;2022-10-13T13:52:47;17.98;;;10.48;;
46551;SDS011;32278;51.810;4.712;2022-10-13T13:55:12;21.17;;;10.15;;
46551;SDS011;32278;51.810;4.712;2022-10-13T13:57:38;23.50;;;10.88;;
46551;SDS011;32278;51.810;4.712;2022-10-13T14:00:04;22.63;;;10.32;;
46551;SDS011;32278;51.810;4.712;2022-10-13T14:02:30;18.65;;;10.45;;
46551;SDS011;32278;51.810;4.712;2022-10-13T14:04:56;19.83;;;11.18;;
46551;SDS011;32278;51.810;4.712;2022-10-13T14:07:22;19.83;;;10.77;;
46551;SDS011;32278;51.810;4.712;2022-10-13T14:09:47;26.58;;;10.88;;
46551;SDS011;32278;51.810;4.712;2022-10-13T14:12:13;20.25;;;10.27;;
46551;SDS011;32278;51.810;4.712;2022-10-13T14:14:38;18.75;;;11.25;;
46551;SDS011;32278;51.810;4.712;2022-10-13T14:17:04;16.60;;;10.43;;
46551;SDS011;32278;51.810;4.712;2022-10-13T14:19:30;24.67;;;11.68;;
46551;SDS011;32278;51.810;4.712;2022-10-13T14:21:56;19.40;;;11.43;;
46551;SDS011;32278;51.810;4.712;2022-10-13T14:24:22;22.40;;;12.00;;
46551;SDS011;32278;51.810;4.712;2022-10-13T14:26:48;26.70;;;11.85;;
46551;SDS011;32278;51.810;4.712;2022-10-13T14:29:13;20.27;;;11.18;;
46551;SDS011;32278;51.810;4.712;2022-10-13T14:31:39;17.77;;;11.82;;
46551;SDS011;32278;51.810;4.712;2022-10-13T14:34:05;13.80;;;9.30;;
46551;SDS011;32278;51.810;4.712;2022-10-13T14:36:30;18.92;;;11.07;;
46551;SDS011;32278;51.810;4.712;2022-10-13T14:38:56;17.65;;;10.40;;
46551;SDS011;32278;51.810;4.712;2022-10-13T14:41:22;15.68;;;9.45;;
46551;SDS011;32278;51.810;4.712;2022-10-13T14:43:50;19.65;;;9.23;;
46551;SDS011;32278;51.810;4.712;2022-10-13T14:46:18;16.63;;;8.65;;
46551;SDS011;32278;51.810;4.712;2022-10-13T14:48:44;18.98;;;10.20;;
46551;SDS011;32278;51.810;4.712;2022-10-13T14:51:10;16.92;;;9.63;;
46551;SDS011;32278;51.810;4.712;2022-10-13T14:53:37;18.80;;;11.15;;
46551;SDS011;32278;51.810;4.712;2022-10-13T14:56:12;15.27;;;8.77;;
46551;SDS011;32278;51.810;4.712;2022-10-13T14:58:46;16.98;;;9.73;;
46551;SDS011;32278;51.810;4.712;2022-10-13T15:01:13;15.05;;;8.30;;
46551;SDS011;32278;51.810;4.712;2022-10-13T15:03:39;12.80;;;7.90;;
46551;SDS011;32278;51.810;4.712;2022-10-13T15:06:05;11.38;;;7.95;;
46551;SDS011;32278;51.810;4.712;2022-10-13T15:08:31;14.70;;;8.85;;
46551;SDS011;32278;51.810;4.712;2022-10-13T15:10:57;13.15;;;8.48;;
46551;SDS011;32278;51.810;4.712;2022-10-13T15:13:26;15.88;;;8.88;;
46551;SDS011;32278;51.810;4.712;2022-10-13T15:15:53;18.30;;;8.98;;
46551;SDS011;32278;51.810;4.712;2022-10-13T15:18:18;13.25;;;7.47;;
46551;SDS011;32278;51.810;4.712;2022-10-13T15:20:45;16.63;;;7.82;;
46551;SDS011;32278;51.810;4.712;2022-10-13T15:23:11;12.45;;;6.25;;
46551;SDS011;32278;51.810;4.712;2022-10-13T15:25:38;13.73;;;7.05;;
46551;SDS011;32278;51.810;4.712;2022-10-13T15:28:04;10.80;;;6.32;;
46551;SDS011;32278;51.810;4.712;2022-10-13T15:30:33;11.88;;;6.93;;
46551;SDS011;32278;51.810;4.712;2022-10-13T15:32:59;15.80;;;8.13;;
46551;SDS011;32278;51.810;4.712;2022-10-13T15:35:28;12.02;;;6.93;;
46551;SDS011;32278;51.810;4.712;2022-10-13T15:37:55;15.05;;;7.47;;
46551;SDS011;32278;51.810;4.712;2022-10-13T15:40:20;11.20;;;7.10;;
46551;SDS011;32278;51.810;4.712;2022-10-13T15:42:46;11.25;;;7.30;;
46551;SDS011;32278;51.810;4.712;2022-10-13T15:45:11;8.10;;;6.20;;
46551;SDS011;32278;51.810;4.712;2022-10-13T15:47:37;10.85;;;5.78;;
46551;SDS011;32278;51.810;4.712;2022-10-13T15:50:02;5.63;;;4.00;;
46551;SDS011;32278;51.810;4.712;2022-10-13T15:52:28;5.50;;;3.42;;
46551;SDS011;32278;51.810;4.712;2022-10-13T15:54:54;5.90;;;2.85;;
46551;SDS011;32278;51.810;4.712;2022-10-13T15:57:20;6.25;;;3.30;;
46551;SDS011;32278;51.810;4.712;2022-10-13T15:59:46;4.38;;;3.10;;
46551;SDS011;32278;51.810;4.712;2022-10-13T16:02:11;4.05;;;2.35;;
46551;SDS011;32278;51.810;4.712;2022-10-13T16:04:37;5.22;;;3.45;;
46551;SDS011;32278;51.810;4.712;2022-10-13T16:07:02;6.65;;;4.68;;
46551;SDS011;32278;51.810;4.712;2022-10-13T16:09:28;4.50;;;3.05;;
46551;SDS011;32278;51.810;4.712;2022-10-13T16:11:54;3.97;;;2.58;;
46551;SDS011;32278;51.810;4.712;2022-10-13T16:14:20;4.25;;;1.92;;
46551;SDS011;32278;51.810;4.712;2022-10-13T16:16:45;4.28;;;2.33;;
46551;SDS011;32278;51.810;4.712;2022-10-13T16:19:10;2.85;;;1.88;;
46551;SDS011;32278;51.810;4.712;2022-10-13T16:21:36;4.80;;;2.33;;